createdAt,value
2018-09-27T00:00:50.591Z,4.50
2018-09-27T00:03:19.075Z,4.50
2018-09-27T00:05:47.500Z,4.40
2018-09-27T00:08:15.872Z,4.30
2018-09-27T00:10:44.354Z,4.30
2018-09-27T00:13:12.743Z,4.20
2018-09-27T00:15:44.540Z,4.10
2018-09-27T00:18:12.950Z,4.10
2018-09-27T00:20:41.391Z,4.10
2018-09-27T00:23:09.784Z,4.10
2018-09-27T00:25:38.160Z,4.10
2018-09-27T00:28:06.575Z,4.00
2018-09-27T00:30:34.921Z,4.10
2018-09-27T00:33:03.405Z,4.00
2018-09-27T00:35:31.756Z,4.00
2018-09-27T00:38:00.105Z,3.90
2018-09-27T00:40:28.529Z,4.00
2018-09-27T00:42:56.962Z,3.90
2018-09-27T00:45:25.347Z,3.90
2018-09-27T00:47:53.781Z,3.90
2018-09-27T00:50:22.203Z,3.90
2018-09-27T00:52:50.587Z,3.90
2018-09-27T00:55:18.956Z,3.90
2018-09-27T00:57:47.288Z,4.10
2018-09-27T01:00:15.615Z,4.20
2018-09-27T01:02:43.999Z,4.30
2018-09-27T01:05:12.491Z,4.30
2018-09-27T01:07:40.856Z,4.30
2018-09-27T01:10:09.233Z,4.20
2018-09-27T01:12:37.615Z,4.10
2018-09-27T01:15:06.028Z,4.00
2018-09-27T01:17:34.439Z,3.90
2018-09-27T01:20:02.811Z,3.80
2018-09-27T01:22:31.179Z,3.70
2018-09-27T01:24:59.705Z,3.70
2018-09-27T01:27:28.100Z,3.70
2018-09-27T01:29:56.461Z,3.70
2018-09-27T01:32:24.832Z,3.70
2018-09-27T01:34:53.244Z,3.60
2018-09-27T01:37:21.608Z,3.60
2018-09-27T01:39:49.972Z,3.60
2018-09-27T01:42:18.437Z,3.60
2018-09-27T01:44:46.825Z,3.60
2018-09-27T01:47:15.319Z,3.50
2018-09-27T01:49:43.679Z,3.60
2018-09-27T01:52:12.119Z,3.60
2018-09-27T01:54:40.567Z,3.50
2018-09-27T01:57:09.000Z,3.50
2018-09-27T01:59:37.472Z,3.40
2018-09-27T02:02:06.035Z,3.40
2018-09-27T02:04:34.525Z,3.40
2018-09-27T02:07:02.916Z,3.60
2018-09-27T02:09:31.299Z,3.60
2018-09-27T02:11:59.720Z,3.70
2018-09-27T02:14:28.052Z,3.80
2018-09-27T02:16:56.261Z,3.90
2018-09-27T02:19:24.470Z,3.90
2018-09-27T02:21:52.686Z,3.80
2018-09-27T02:24:20.911Z,3.70
2018-09-27T02:26:49.106Z,3.60
2018-09-27T02:29:17.310Z,3.50
2018-09-27T02:31:45.530Z,3.60
2018-09-27T02:34:13.740Z,3.50
2018-09-27T02:36:41.943Z,3.40
2018-09-27T02:39:11.010Z,3.50
2018-09-27T02:41:39.810Z,3.50
2018-09-27T02:44:08.303Z,3.50
2018-09-27T02:46:36.502Z,3.40
2018-09-27T02:49:04.702Z,3.60
2018-09-27T02:51:32.904Z,3.60
2018-09-27T02:54:01.130Z,3.60
2018-09-27T02:56:29.333Z,3.60
2018-09-27T02:58:57.538Z,3.40
2018-09-27T03:01:25.726Z,3.40
2018-09-27T03:03:53.942Z,3.30
2018-09-27T03:06:22.146Z,3.30
2018-09-27T03:08:50.342Z,3.20
2018-09-27T03:11:18.562Z,3.30
2018-09-27T03:13:46.777Z,3.30
2018-09-27T03:16:14.970Z,3.20
2018-09-27T03:18:43.167Z,3.10
2018-09-27T03:21:11.377Z,3.00
2018-09-27T03:23:39.566Z,3.00
2018-09-27T03:26:07.770Z,3.00
2018-09-27T03:28:35.974Z,3.20
2018-09-27T03:31:04.230Z,3.20
2018-09-27T03:33:32.479Z,3.20
2018-09-27T03:36:00.700Z,3.30
2018-09-27T03:38:28.898Z,3.30
2018-09-27T03:40:57.106Z,3.30
2018-09-27T03:43:25.306Z,3.20
2018-09-27T03:45:53.506Z,3.20
2018-09-27T03:48:21.704Z,3.20
2018-09-27T03:50:49.914Z,3.20
2018-09-27T03:53:25.271Z,3.20
2018-09-27T03:55:53.475Z,3.30
2018-09-27T03:58:21.690Z,3.40
2018-09-27T04:00:49.914Z,3.50
2018-09-27T04:03:18.247Z,3.60
2018-09-27T04:05:46.385Z,3.60
2018-09-27T04:08:14.594Z,3.70
2018-09-27T04:10:42.806Z,3.80
2018-09-27T04:13:11.130Z,3.80
2018-09-27T04:15:39.410Z,3.90
2018-09-27T04:18:07.586Z,3.80
2018-09-27T04:20:39.625Z,3.70
2018-09-27T04:23:07.822Z,3.50
2018-09-27T04:25:36.035Z,3.40
2018-09-27T04:28:04.242Z,3.30
2018-09-27T04:30:32.447Z,3.30
2018-09-27T04:33:00.670Z,3.20
2018-09-27T04:35:28.886Z,3.20
2018-09-27T04:37:57.106Z,3.20
2018-09-27T04:40:28.451Z,3.10
2018-09-27T04:42:56.662Z,3.00
2018-09-27T04:45:24.868Z,3.00
2018-09-27T04:47:53.083Z,2.90
2018-09-27T04:50:21.291Z,2.90
2018-09-27T04:52:49.663Z,2.90
2018-09-27T04:55:17.879Z,2.80
2018-09-27T04:57:46.159Z,2.80
2018-09-27T05:00:14.419Z,2.70
2018-09-27T05:02:42.773Z,2.70
2018-09-27T05:05:11.027Z,2.70
2018-09-27T05:07:39.274Z,2.70
2018-09-27T05:10:07.514Z,2.70
2018-09-27T05:12:35.786Z,2.90
2018-09-27T05:15:04.045Z,2.90
2018-09-27T05:17:32.303Z,3.00
2018-09-27T05:20:00.571Z,3.00
2018-09-27T05:22:28.846Z,3.00
2018-09-27T05:24:57.225Z,3.20
2018-09-27T05:27:25.495Z,3.20
2018-09-27T05:29:53.746Z,3.40
2018-09-27T05:32:21.997Z,3.40
2018-09-27T05:34:50.259Z,3.40
2018-09-27T05:37:18.506Z,3.50
2018-09-27T05:39:46.763Z,3.70
2018-09-27T05:42:15.020Z,4.00
2018-09-27T05:44:43.378Z,4.40
2018-09-27T05:47:11.625Z,4.80
2018-09-27T05:49:39.874Z,5.10
2018-09-27T05:52:08.170Z,5.40
2018-09-27T05:54:36.439Z,5.20
2018-09-27T05:57:04.697Z,5.50
2018-09-27T05:59:33.053Z,5.90
2018-09-27T06:02:01.393Z,6.40
2018-09-27T06:04:29.622Z,7.10
2018-09-27T06:06:57.879Z,7.80
2018-09-27T06:09:26.187Z,8.60
2018-09-27T06:11:54.406Z,8.90
2018-09-27T06:14:22.658Z,9.00
2018-09-27T06:16:50.958Z,10.20
2018-09-27T06:19:19.278Z,12.10
2018-09-27T06:21:47.478Z,13.20
2018-09-27T06:24:15.762Z,12.60
2018-09-27T06:26:44.027Z,14.10
2018-09-27T06:29:12.272Z,15.60
2018-09-27T06:31:40.526Z,17.00
2018-09-27T06:34:08.773Z,18.00
2018-09-27T06:36:37.023Z,18.60
2018-09-27T06:39:07.470Z,18.90
2018-09-27T06:41:35.718Z,18.50
2018-09-27T06:44:03.983Z,18.50
2018-09-27T06:46:32.241Z,18.20
2018-09-27T06:49:00.491Z,18.40
2018-09-27T06:51:28.741Z,18.20
2018-09-27T06:53:57.085Z,17.30
2018-09-27T06:56:25.401Z,17.20
2018-09-27T06:58:53.635Z,16.80
2018-09-27T07:01:21.910Z,18.40
2018-09-27T07:03:50.171Z,18.40
2018-09-27T07:06:18.422Z,19.90
2018-09-27T07:08:46.679Z,19.50
2018-09-27T07:11:14.942Z,19.00
2018-09-27T07:13:43.202Z,20.10
2018-09-27T07:16:11.450Z,21.70
2018-09-27T07:18:39.718Z,22.10
2018-09-27T07:21:07.950Z,21.80
2018-09-27T07:23:36.202Z,23.40
2018-09-27T07:26:04.558Z,25.00
2018-09-27T07:28:32.950Z,25.30
2018-09-27T07:31:01.238Z,26.10
2018-09-27T07:33:29.499Z,26.90
2018-09-27T07:35:57.786Z,26.50
2018-09-27T07:38:26.050Z,25.70
2018-09-27T07:40:54.294Z,24.00
2018-09-27T07:43:22.542Z,24.10
2018-09-27T07:45:50.786Z,23.30
2018-09-27T07:48:19.046Z,24.70
2018-09-27T07:50:47.286Z,23.30
2018-09-27T07:53:15.538Z,23.60
2018-09-27T07:55:43.778Z,24.40
2018-09-27T07:58:12.031Z,21.90
2018-09-27T08:00:40.273Z,21.70
2018-09-27T08:03:08.618Z,21.20
2018-09-27T08:05:37.074Z,21.00
2018-09-27T08:08:05.655Z,22.10
2018-09-27T08:10:33.902Z,22.30
2018-09-27T08:13:02.153Z,22.90
2018-09-27T08:15:30.410Z,23.70
2018-09-27T08:17:58.826Z,25.10
2018-09-27T08:20:27.098Z,26.00
2018-09-27T08:22:55.345Z,25.80
2018-09-27T08:25:23.590Z,24.50
2018-09-27T08:27:51.831Z,23.80
2018-09-27T08:30:20.136Z,24.60
2018-09-27T08:32:48.352Z,24.60
2018-09-27T08:35:16.698Z,24.50
2018-09-27T08:37:44.974Z,23.50
2018-09-27T08:40:13.226Z,22.90
2018-09-27T08:42:41.478Z,23.60
2018-09-27T08:45:09.846Z,22.80
2018-09-27T08:47:38.007Z,23.10
2018-09-27T08:50:06.270Z,26.10
2018-09-27T08:52:34.522Z,26.00
2018-09-27T08:55:02.782Z,24.50
2018-09-27T08:57:31.059Z,24.90
2018-09-27T08:59:59.302Z,25.20
2018-09-27T09:02:27.542Z,27.20
2018-09-27T09:04:55.855Z,28.50
2018-09-27T09:07:24.175Z,29.60
2018-09-27T09:09:52.434Z,29.70
2018-09-27T09:12:20.686Z,30.70
2018-09-27T09:14:48.943Z,28.20
2018-09-27T09:17:17.198Z,28.60
2018-09-27T09:19:45.457Z,26.60
2018-09-27T09:22:13.706Z,28.40
2018-09-27T09:24:41.985Z,28.70
2018-09-27T09:27:10.287Z,29.10
2018-09-27T09:29:38.563Z,27.30
2018-09-27T09:32:06.822Z,28.80
2018-09-27T09:34:35.078Z,29.30
2018-09-27T09:37:03.377Z,29.00
2018-09-27T09:39:31.638Z,27.00
2018-09-27T09:41:59.886Z,26.80
2018-09-27T09:44:28.133Z,27.60
2018-09-27T09:46:56.402Z,30.10
2018-09-27T09:49:24.654Z,31.30
2018-09-27T09:51:52.907Z,29.40
2018-09-27T09:54:21.155Z,26.30
2018-09-27T09:56:49.409Z,27.20
2018-09-27T09:59:17.650Z,29.00
2018-09-27T10:01:45.908Z,27.30
2018-09-27T10:04:14.158Z,26.30
2018-09-27T10:06:42.518Z,25.90
2018-09-27T10:09:11.436Z,27.30
2018-09-27T10:11:39.718Z,28.40
2018-09-27T10:14:08.075Z,28.70
2018-09-27T10:16:36.897Z,30.90
2018-09-27T10:19:05.150Z,31.20
2018-09-27T10:21:33.426Z,28.40
2018-09-27T10:24:01.813Z,29.10
2018-09-27T10:26:30.067Z,28.70
2018-09-27T10:28:58.432Z,29.30
2018-09-27T10:31:26.762Z,30.80
2018-09-27T10:33:55.028Z,29.20
2018-09-27T10:36:23.297Z,30.50
2018-09-27T10:38:51.638Z,29.80
2018-09-27T10:41:19.835Z,28.90
2018-09-27T10:43:48.081Z,29.10
2018-09-27T10:46:16.279Z,28.60
2018-09-27T10:48:44.519Z,29.40
2018-09-27T10:51:12.778Z,28.20
2018-09-27T10:53:40.982Z,28.50
2018-09-27T10:56:09.374Z,28.60
2018-09-27T10:58:37.580Z,27.50
2018-09-27T11:01:05.794Z,28.80
2018-09-27T11:03:33.999Z,29.30
2018-09-27T11:06:02.217Z,28.00
2018-09-27T11:08:30.413Z,27.70
2018-09-27T11:10:58.699Z,28.00
2018-09-27T11:13:26.967Z,29.20
2018-09-27T11:15:55.186Z,31.50
2018-09-27T11:18:23.403Z,31.60
2018-09-27T11:20:51.650Z,31.40
2018-09-27T11:23:27.470Z,30.20
2018-09-27T11:25:55.701Z,30.50
2018-09-27T11:28:23.912Z,30.20
2018-09-27T11:31:57.222Z,29.90
2018-09-27T11:34:25.426Z,31.10
2018-09-27T11:36:53.651Z,26.80
2018-09-27T11:39:21.878Z,26.80
2018-09-27T11:41:50.182Z,29.50
2018-09-27T11:44:18.398Z,31.10
2018-09-27T11:46:46.699Z,31.60
2018-09-27T11:49:15.036Z,31.30
2018-09-27T11:51:43.094Z,30.40
2018-09-27T11:54:11.327Z,31.00
2018-09-27T11:56:40.703Z,31.70
2018-09-27T11:59:09.290Z,31.50
2018-09-27T12:01:42.103Z,32.30
2018-09-27T12:04:10.603Z,29.90
2018-09-27T12:06:41.892Z,28.60
2018-09-27T12:09:12.740Z,30.00
2018-09-27T12:11:41.302Z,29.00
2018-09-27T12:14:13.779Z,28.50
2018-09-27T12:16:42.065Z,28.80
2018-09-27T12:19:10.242Z,29.90
2018-09-27T12:21:44.150Z,30.10
2018-09-27T12:24:12.398Z,29.00
2018-09-27T12:26:40.594Z,28.50
2018-09-27T12:29:08.827Z,28.80
2018-09-27T12:31:37.026Z,30.50
2018-09-27T12:34:05.314Z,30.20
2018-09-27T12:36:33.489Z,30.80
2018-09-27T12:39:01.692Z,31.60
2018-09-27T12:41:29.983Z,27.20
2018-09-27T12:43:58.146Z,30.10
2018-09-27T12:46:26.454Z,28.70
2018-09-27T12:48:54.648Z,27.90
2018-09-27T12:51:23.049Z,29.20
2018-09-27T12:53:51.251Z,27.80
2018-09-27T12:56:19.467Z,28.80
2018-09-27T12:58:47.674Z,27.10
2018-09-27T13:01:15.894Z,28.90
2018-09-27T13:03:49.900Z,29.50
2018-09-27T13:06:18.051Z,31.10
2018-09-27T13:08:46.379Z,31.90
2018-09-27T13:11:14.490Z,32.30
2018-09-27T13:13:42.699Z,30.10
2018-09-27T13:16:10.991Z,32.00
2018-09-27T13:18:39.162Z,30.30
2018-09-27T13:21:07.379Z,28.00
2018-09-27T13:23:35.722Z,26.20
2018-09-27T13:26:03.946Z,25.30
2018-09-27T13:28:32.197Z,26.60
2018-09-27T13:31:00.476Z,25.40
2018-09-27T13:33:28.638Z,27.30
2018-09-27T13:35:56.863Z,29.10
2018-09-27T13:38:25.090Z,28.00
2018-09-27T13:40:53.306Z,26.80
2018-09-27T13:43:21.531Z,26.60
2018-09-27T13:45:49.738Z,28.60
2018-09-27T13:48:17.975Z,31.40
2018-09-27T13:50:46.255Z,32.40
2018-09-27T13:53:14.467Z,31.60
2018-09-27T13:55:42.715Z,28.10
2018-09-27T13:58:11.024Z,29.20
2018-09-27T14:00:39.245Z,26.20
2018-09-27T14:03:07.475Z,27.00
2018-09-27T14:05:35.723Z,27.30
2018-09-27T14:08:03.978Z,28.90
2018-09-27T14:10:32.183Z,27.80
2018-09-27T14:13:00.446Z,26.60
2018-09-27T14:15:28.658Z,26.70
2018-09-27T14:17:56.858Z,27.90
2018-09-27T14:20:25.079Z,30.10
2018-09-27T14:22:53.348Z,30.60
2018-09-27T14:25:21.565Z,28.30
2018-09-27T14:27:49.778Z,27.70
2018-09-27T14:30:18.003Z,27.50
2018-09-27T14:32:46.340Z,26.00
2018-09-27T14:35:14.567Z,25.40
2018-09-27T14:37:42.782Z,25.40
2018-09-27T14:40:11.049Z,24.20
2018-09-27T14:42:39.384Z,24.80
2018-09-27T14:45:07.536Z,24.40
2018-09-27T14:47:35.801Z,24.60
2018-09-27T14:50:04.030Z,25.50
2018-09-27T14:52:32.263Z,25.90
2018-09-27T14:55:00.535Z,25.50
2018-09-27T14:57:28.648Z,24.90
2018-09-27T14:59:56.903Z,25.00
2018-09-27T15:02:25.196Z,24.60
2018-09-27T15:04:53.343Z,26.30
2018-09-27T15:07:21.584Z,25.20
2018-09-27T15:09:49.832Z,24.20
2018-09-27T15:12:18.051Z,23.60
2018-09-27T15:14:46.254Z,23.50
2018-09-27T15:17:14.467Z,23.20
2018-09-27T15:19:42.683Z,23.10
2018-09-27T15:22:10.904Z,23.20
2018-09-27T15:24:39.134Z,23.70
2018-09-27T15:27:07.435Z,23.20
2018-09-27T15:29:35.701Z,23.60
2018-09-27T15:32:03.926Z,24.50
2018-09-27T15:34:32.203Z,25.30
2018-09-27T15:37:00.407Z,25.60
2018-09-27T15:39:28.668Z,24.80
2018-09-27T15:41:56.910Z,24.40
2018-09-27T15:44:25.127Z,23.60
2018-09-27T15:46:53.342Z,22.80
2018-09-27T15:49:21.554Z,22.20
2018-09-27T15:51:49.763Z,21.70
2018-09-27T15:54:17.970Z,21.40
2018-09-27T15:56:46.190Z,21.20
2018-09-27T15:59:14.419Z,21.00
2018-09-27T16:01:42.679Z,20.70
2018-09-27T16:04:10.944Z,20.60
2018-09-27T16:06:58.096Z,20.50
2018-09-27T16:09:26.301Z,20.70
2018-09-27T16:11:54.624Z,20.50
2018-09-27T16:14:22.750Z,20.20
2018-09-27T16:16:50.966Z,20.20
2018-09-27T16:19:19.212Z,20.10
2018-09-27T16:21:47.519Z,19.90
2018-09-27T16:24:15.695Z,19.90
2018-09-27T16:26:43.914Z,19.80
2018-09-27T16:29:12.127Z,19.60
2018-09-27T16:31:40.339Z,19.40
2018-09-27T16:34:08.599Z,19.20
2018-09-27T16:36:36.807Z,19.00
2018-09-27T16:39:07.175Z,18.70
2018-09-27T16:41:35.498Z,18.40
2018-09-27T16:44:03.650Z,17.90
2018-09-27T16:46:31.875Z,17.60
2018-09-27T16:49:00.130Z,17.30
2018-09-27T16:51:28.290Z,17.10
2018-09-27T16:53:56.823Z,17.00
2018-09-27T16:56:43.638Z,16.80
2018-09-27T16:59:11.867Z,16.70
2018-09-27T17:01:40.111Z,16.40
2018-09-27T17:04:08.338Z,16.20
2018-09-27T17:06:36.562Z,16.00
2018-09-27T17:09:06.418Z,15.80
2018-09-27T17:11:34.622Z,15.60
2018-09-27T17:14:02.819Z,15.40
2018-09-27T17:16:31.087Z,15.20
2018-09-27T17:18:59.295Z,15.10
2018-09-27T17:21:27.527Z,14.90
2018-09-27T17:23:55.739Z,14.90
2018-09-27T17:26:23.938Z,14.80
2018-09-27T17:28:52.184Z,14.70
2018-09-27T17:31:20.434Z,14.60
2018-09-27T17:33:48.658Z,14.50
2018-09-27T17:36:16.854Z,14.40
2018-09-27T17:38:45.087Z,14.50
2018-09-27T17:41:20.479Z,14.40
2018-09-27T17:43:48.723Z,14.40
2018-09-27T17:46:16.967Z,14.40
2018-09-27T17:48:45.180Z,14.30
2018-09-27T17:51:13.483Z,14.20
2018-09-27T17:53:41.731Z,14.10
2018-09-27T17:56:09.970Z,14.00
2018-09-27T17:58:38.256Z,13.80
2018-09-27T18:01:06.639Z,13.70
2018-09-27T18:03:34.903Z,13.80
2018-09-27T18:06:03.310Z,13.60
2018-09-27T18:08:31.820Z,13.60
2018-09-27T18:11:00.014Z,13.40
2018-09-27T18:13:28.283Z,13.20
2018-09-27T18:15:56.565Z,13.10
2018-09-27T18:18:24.931Z,13.00
2018-09-27T18:20:53.137Z,12.80
2018-09-27T18:23:21.379Z,12.80
2018-09-27T18:25:49.639Z,12.90
2018-09-27T18:28:17.952Z,13.10
2018-09-27T18:30:46.202Z,13.10
2018-09-27T18:33:14.455Z,13.00
2018-09-27T18:35:42.703Z,12.80
2018-09-27T18:38:11.373Z,12.60
2018-09-27T18:40:50.206Z,12.50
2018-09-27T18:43:18.520Z,12.40
2018-09-27T18:45:46.670Z,12.40
2018-09-27T18:48:14.905Z,12.20
2018-09-27T18:50:43.395Z,12.10
2018-09-27T18:53:12.033Z,12.00
2018-09-27T18:55:40.364Z,11.80
2018-09-27T18:58:08.706Z,11.60
2018-09-27T19:00:45.363Z,11.50
2018-09-27T19:03:13.647Z,11.40
2018-09-27T19:05:41.918Z,11.30
2018-09-27T19:08:16.777Z,11.20
2018-09-27T19:10:45.158Z,11.10
2018-09-27T19:13:13.598Z,11.00
2018-09-27T19:15:41.910Z,10.90
2018-09-27T19:21:05.318Z,10.60
2018-09-27T19:23:33.905Z,10.60
2018-09-27T19:26:02.270Z,10.50
2018-09-27T19:28:30.559Z,10.50
2018-09-27T19:30:58.795Z,10.40
2018-09-27T19:33:27.066Z,10.30
2018-09-27T19:35:55.287Z,10.30
2018-09-27T19:38:23.694Z,10.40
2018-09-27T19:40:53.030Z,10.30
2018-09-27T19:43:21.440Z,10.30
2018-09-27T19:45:49.890Z,10.30
2018-09-27T19:48:18.502Z,10.30
2018-09-27T19:50:46.774Z,10.30
2018-09-27T19:53:15.200Z,10.20
2018-09-27T19:55:43.594Z,10.10
2018-09-27T19:58:11.888Z,10.00
2018-09-27T20:00:40.043Z,9.90
2018-09-27T20:03:08.255Z,9.90
2018-09-27T20:05:36.623Z,9.80
2018-09-27T20:08:04.831Z,9.80
2018-09-27T20:10:33.211Z,9.70
2018-09-27T20:13:02.001Z,9.70
2018-09-27T20:15:30.232Z,9.70
2018-09-27T20:17:58.458Z,9.70
2018-09-27T20:20:26.658Z,9.60
2018-09-27T20:22:58.794Z,9.60
2018-09-27T20:25:27.040Z,9.70
2018-09-27T20:27:55.291Z,9.70
2018-09-27T20:30:23.506Z,9.70
2018-09-27T20:32:51.774Z,9.60
2018-09-27T20:35:20.087Z,9.70
2018-09-27T20:37:48.616Z,9.70
2018-09-27T20:40:17.184Z,9.60
2018-09-27T20:42:45.661Z,9.60
2018-09-27T20:45:14.070Z,9.50
2018-09-27T20:47:42.535Z,9.30
2018-09-27T20:50:11.172Z,9.10
2018-09-27T20:52:39.660Z,9.00
2018-09-27T20:55:08.192Z,8.80
2018-09-27T20:57:36.735Z,8.70
2018-09-27T21:00:05.539Z,8.60
2018-09-27T21:02:33.989Z,8.60
2018-09-27T21:05:02.473Z,8.60
2018-09-27T21:07:31.069Z,8.50
2018-09-27T21:09:59.733Z,8.40
2018-09-27T21:12:28.240Z,8.50
2018-09-27T21:14:56.657Z,8.40
2018-09-27T21:17:25.161Z,8.50
2018-09-27T21:19:53.650Z,8.40
2018-09-27T21:22:22.119Z,8.40
2018-09-27T21:24:50.645Z,8.30
2018-09-27T21:27:19.048Z,8.20
2018-09-27T21:29:47.544Z,8.20
2018-09-27T21:32:16.109Z,8.20
2018-09-27T21:34:44.644Z,8.10
2018-09-27T21:37:13.087Z,8.10
2018-09-27T21:39:41.536Z,8.10
2018-09-27T21:42:10.241Z,8.10
2018-09-27T21:44:38.780Z,8.10
2018-09-27T21:47:07.258Z,8.00
2018-09-27T21:49:35.756Z,8.00
2018-09-27T21:52:04.256Z,8.00
2018-09-27T21:54:32.729Z,8.00
2018-09-27T21:57:01.207Z,8.00
2018-09-27T21:59:29.715Z,8.00
2018-09-27T22:01:58.221Z,8.00
2018-09-27T22:04:26.770Z,8.00
2018-09-27T22:06:55.185Z,8.10
2018-09-27T22:09:23.628Z,8.20
2018-09-27T22:11:52.103Z,8.40
2018-09-27T22:14:20.648Z,8.50
2018-09-27T22:16:49.343Z,8.60
2018-09-27T22:19:17.858Z,8.50
2018-09-27T22:21:46.278Z,8.40
2018-09-27T22:24:14.697Z,8.30
2018-09-27T22:26:43.107Z,8.30
2018-09-27T22:29:11.475Z,8.20
2018-09-27T22:31:39.952Z,8.10
2018-09-27T22:34:08.348Z,8.00
2018-09-27T22:36:36.755Z,7.90
2018-09-27T22:39:06.543Z,7.90
2018-09-27T22:41:35.003Z,7.80
2018-09-27T22:44:03.331Z,7.70
2018-09-27T22:46:31.835Z,7.60
2018-09-27T22:49:00.191Z,7.70
2018-09-27T22:51:28.550Z,7.80
2018-09-27T22:53:56.923Z,7.70
2018-09-27T22:56:25.456Z,7.60
2018-09-27T22:58:53.964Z,7.60
2018-09-27T23:01:22.421Z,7.60
2018-09-27T23:03:50.732Z,7.60
2018-09-27T23:06:19.094Z,7.50
2018-09-27T23:08:47.543Z,7.50
2018-09-27T23:11:15.984Z,7.50
2018-09-27T23:16:53.503Z,7.30
2018-09-27T23:19:21.896Z,7.30
2018-09-27T23:21:50.348Z,7.40
2018-09-27T23:24:18.724Z,7.30
2018-09-27T23:26:47.181Z,7.30
2018-09-27T23:29:15.616Z,7.30
2018-09-27T23:31:43.960Z,7.30
2018-09-27T23:34:12.315Z,7.30
2018-09-27T23:36:40.692Z,7.30
2018-09-27T23:39:09.818Z,7.20
2018-09-27T23:41:38.564Z,7.20
2018-09-27T23:44:07.272Z,7.30
2018-09-27T23:46:35.680Z,7.20
2018-09-27T23:49:04.059Z,7.10
2018-09-27T23:51:32.431Z,7.10
2018-09-27T23:54:00.876Z,7.10
2018-09-27T23:56:29.239Z,7.20
2018-09-27T23:58:57.665Z,7.30
